Terminal Aerodrome Forecast
Issued by NWS La Crosse, WI

Home | Current Version | Previous Version | Text Only | Print | Product List | Glossary On
Versions: 1 2 3 4 5 6 7 8 9 10 11 12 13 14 15 16 17
000
FTUS43 KARX 231726
TAFLSE
TAF
KLSE 231726Z 2318/2418 16010G18KT P6SM -SHRA SCT060 OVC090
     FM240200 15012G20KT P6SM -RA OVC060
     FM240700 14012G19KT P6SM OVC035
     FM241000 13012KT 5SM -RA BR OVC015
     FM241600 12012KT 5SM -RA BR OVC013=

USA.gov is the U.S. government's official web portal to all federal, state and local government web resources and services.